Twijzel, Netherlands
Current Conditions -  °F | °C
As of 8:55 PM on Friday 24 Oct 2014 (Local Time) from EHLW Reporting Station
Haze Haze  
Wind Chill: 52°   Ceiling: 500
Heat Index: 52°   Visibility: 3mi
Dew Point: 52°   Wind: 12mph
Humidity: 100%   Direction: 180°S
Pressure: 29.94"   Gusts: NA
Location:  53.23°N, 6.09°E
Report Text: EHLW 241855Z AUTO 18010KT 5000 BR BKN005 OVC006 11/11 Q1014 YLO
Loading
Personal Weather Stations






























Interactive Weather Map
Tropical Storm Tracking
New forecast layout! Learn more

10-Day Weather Forecast

Advertisements
Track Severe Weather on mobile